Time;durP1;ratioP1;P1;durP2;ratioP2;P2;SDS_P1;SDS_P2;PMS_P1;PMS_P2;Temp;Humidity;BMP_temperature;BMP_pressure;BME280_temperature;BME280_humidity;BME280_pressure;Samples;Min_cycle;Max_cycle;Signal;HPM_P1;HPM_P2
2021/08/29 00:01:00;;;;;;;3.60;1.30;;;;;;;13.70;100.00;100995.34;110710;1205;61068;-77
2021/08/29 00:03:27;;;;;;;2.10;1.20;;;;;;;13.70;100.00;100995.02;111215;1198;61054;-79
2021/08/29 00:05:54;;;;;;;2.60;1.40;;;;;;;13.70;100.00;100993.30;110790;1205;74473;-78
2021/08/29 00:08:20;;;;;;;2.30;1.50;;;;;;;13.70;100.00;100993.41;110875;1205;61024;-80
2021/08/29 00:10:47;;;;;;;3.30;1.60;;;;;;;13.70;100.00;100991.65;110886;1205;61111;-78
2021/08/29 00:13:13;;;;;;;7.70;1.80;;;;;;;13.71;100.00;100989.77;110781;1205;61578;-77
2021/08/29 00:15:40;;;;;;;3.20;1.90;;;;;;;13.71;100.00;100989.77;110694;1205;61184;-77
2021/08/29 00:18:06;;;;;;;2.40;1.50;;;;;;;13.71;100.00;100991.13;110683;1205;61194;-79
2021/08/29 00:20:33;;;;;;;4.20;2.00;;;;;;;13.71;100.00;100989.73;110734;1200;61086;-79
2021/08/29 00:22:59;;;;;;;4.10;2.00;;;;;;;13.71;100.00;100986.95;110899;1205;61079;-79
2021/08/29 00:25:27;;;;;;;2.80;2.00;;;;;;;13.71;100.00;100986.73;110840;1205;61079;-80
2021/08/29 00:27:55;;;;;;;4.80;1.90;;;;;;;13.71;100.00;100984.77;110973;1198;61568;-79
2021/08/29 00:30:22;;;;;;;6.30;2.00;;;;;;;13.70;100.00;100982.42;111105;1204;74760;-80
2021/08/29 00:32:48;;;;;;;3.40;2.20;;;;;;;13.69;100.00;100981.64;112269;1198;71001;-81
2021/08/29 00:35:15;;;;;;;3.50;2.70;;;;;;;13.69;100.00;100985.24;110737;1205;61090;-78
2021/08/29 00:37:41;;;;;;;4.60;1.90;;;;;;;13.70;100.00;100982.26;110793;1197;61157;-79
2021/08/29 00:40:08;;;;;;;3.90;1.90;;;;;;;13.70;100.00;100980.24;110716;1205;61092;-79
2021/08/29 00:42:35;;;;;;;4.10;2.40;;;;;;;13.70;100.00;100978.82;110833;1205;74626;-80
2021/08/29 00:45:02;;;;;;;3.80;2.20;;;;;;;13.70;100.00;100977.62;110987;1197;62309;-79
2021/08/29 00:47:31;;;;;;;3.70;1.90;;;;;;;13.70;100.00;100974.09;110866;1205;73809;-80
2021/08/29 00:49:58;;;;;;;4.40;2.50;;;;;;;13.69;100.00;100978.64;111081;1205;61969;-79
2021/08/29 00:52:25;;;;;;;4.30;2.10;;;;;;;13.68;100.00;100975.52;110787;1198;61163;-79
2021/08/29 00:54:52;;;;;;;3.40;2.30;;;;;;;13.67;100.00;100977.56;110963;1204;74175;-77
2021/08/29 00:57:18;;;;;;;5.40;2.30;;;;;;;13.66;100.00;100974.27;110860;1205;61628;-79
2021/08/29 00:59:45;;;;;;;4.90;2.60;;;;;;;13.66;100.00;100976.84;110804;1205;61105;-79
2021/08/29 01:02:14;;;;;;;4.10;2.40;;;;;;;13.66;100.00;100976.98;110888;1206;62978;-80
2021/08/29 01:04:56;;;;;;;3.50;1.90;;;;;;;13.66;100.00;100973.98;111247;1205;61113;-80
2021/08/29 01:07:30;;;;;;;6.20;2.40;;;;;;;13.65;100.00;100971.09;111092;1198;74508;-79
2021/08/29 01:10:02;;;;;;;6.00;2.50;;;;;;;13.65;100.00;100966.67;111250;1198;72048;-79
2021/08/29 01:12:30;;;;;;;3.60;2.10;;;;;;;13.65;100.00;100964.83;111443;1197;71486;-79
2021/08/29 01:15:01;;;;;;;4.10;2.20;;;;;;;13.65;100.00;100963.42;110881;1206;62975;-81
2021/08/29 01:17:31;;;;;;;5.90;2.50;;;;;;;13.65;100.00;100964.36;110969;1197;60978;-77
2021/08/29 01:20:15;;;;;;;5.20;2.20;;;;;;;13.64;100.00;100963.42;111755;1197;74645;-78
2021/08/29 01:22:43;;;;;;;4.10;2.30;;;;;;;13.63;100.00;100964.35;110828;1204;71002;-78
2021/08/29 01:25:16;;;;;;;5.20;2.90;;;;;;;13.64;100.00;100962.89;110851;1206;73497;-79
2021/08/29 01:27:49;;;;;;;3.80;2.70;;;;;;;13.64;100.00;100959.67;111134;1205;62086;-79
2021/08/29 01:30:17;;;;;;;4.90;2.70;;;;;;;13.63;100.00;100960.33;110915;1205;61093;-79
2021/08/29 01:32:44;;;;;;;4.40;2.50;;;;;;;13.62;100.00;100962.03;110972;1206;75803;-79
2021/08/29 01:35:13;;;;;;;4.00;2.60;;;;;;;13.62;100.00;100960.14;111034;1204;70952;-79
2021/08/29 01:37:43;;;;;;;5.80;2.80;;;;;;;13.61;100.00;100958.14;110880;1206;72446;-79
2021/08/29 01:40:10;;;;;;;6.00;2.70;;;;;;;13.61;100.00;100958.98;111008;1206;61692;-80
2021/08/29 01:42:38;;;;;;;5.20;2.40;;;;;;;13.61;100.00;100962.92;110886;1205;61734;-79
2021/08/29 01:45:06;;;;;;;4.80;2.40;;;;;;;13.59;100.00;100961.39;110826;1205;75590;-81
2021/08/29 01:47:32;;;;;;;3.60;2.00;;;;;;;13.58;100.00;100960.77;110922;1198;71347;-80
2021/08/29 01:49:59;;;;;;;4.30;2.60;;;;;;;13.56;100.00;100960.63;110854;1206;61596;-78
2021/08/29 01:52:26;;;;;;;5.00;3.10;;;;;;;13.56;100.00;100958.38;110778;1198;61920;-79
2021/08/29 01:54:52;;;;;;;5.60;3.20;;;;;;;13.54;100.00;100955.19;110780;1205;61104;-79
2021/08/29 01:57:19;;;;;;;6.10;2.90;;;;;;;13.54;100.00;100954.48;110812;1206;60989;-79
2021/08/29 01:59:46;;;;;;;4.50;2.50;;;;;;;13.54;100.00;100955.20;111149;1199;71970;-79
2021/08/29 02:02:14;;;;;;;5.30;2.30;;;;;;;13.54;100.00;100956.09;110820;1206;73133;-79
2021/08/29 02:04:43;;;;;;;4.80;2.40;;;;;;;13.54;100.00;100955.40;114275;1198;61998;-78
2021/08/29 02:07:15;;;;;;;3.90;2.50;;;;;;;13.55;100.00;100955.64;110976;1205;61078;-78
2021/08/29 02:09:52;;;;;;;5.20;2.70;;;;;;;13.54;100.00;100954.36;111025;1199;75534;-79
2021/08/29 02:12:19;;;;;;;4.50;2.80;;;;;;;13.53;100.00;100955.54;110791;1205;70852;-77
2021/08/29 02:14:57;;;;;;;4.80;3.00;;;;;;;13.52;100.00;100950.62;110786;1204;73686;-79
2021/08/29 02:17:26;;;;;;;5.60;3.50;;;;;;;13.53;100.00;100954.27;110943;1206;61846;-79
2021/08/29 02:19:55;;;;;;;5.60;2.80;;;;;;;13.53;100.00;100952.84;111458;1205;61412;-87
2021/08/29 02:22:22;;;;;;;4.80;3.40;;;;;;;13.53;100.00;100946.27;110997;1200;74955;-77
2021/08/29 02:24:49;;;;;;;7.20;4.20;;;;;;;13.54;100.00;100946.21;110693;1206;71911;-79
2021/08/29 02:27:17;;;;;;;6.30;3.70;;;;;;;13.56;100.00;100945.98;110820;1205;73588;-78
2021/08/29 02:29:44;;;;;;;5.30;3.30;;;;;;;13.57;100.00;100945.50;110773;1205;61859;-79
2021/08/29 02:32:13;;;;;;;5.80;3.80;;;;;;;13.57;100.00;100943.45;110888;1204;61006;-78
2021/08/29 02:34:40;;;;;;;6.50;3.40;;;;;;;13.58;100.00;100944.20;110854;1205;75720;-77
2021/08/29 02:37:09;;;;;;;5.60;3.00;;;;;;;13.57;100.00;100940.95;110705;1206;71148;-78
2021/08/29 02:39:37;;;;;;;6.80;4.10;;;;;;;13.56;100.00;100940.05;111294;1205;71286;-78
2021/08/29 02:42:07;;;;;;;5.50;3.20;;;;;;;13.56;100.00;100939.21;110713;1206;62627;-76
2021/08/29 02:44:36;;;;;;;5.10;3.50;;;;;;;13.56;100.00;100936.52;111132;1206;61275;-79
2021/08/29 02:47:03;;;;;;;6.20;3.70;;;;;;;13.56;100.00;100935.56;110957;1205;76190;-79
2021/08/29 02:49:30;;;;;;;7.50;4.00;;;;;;;13.57;100.00;100939.06;110879;1197;70877;-79
2021/08/29 02:51:56;;;;;;;6.00;4.00;;;;;;;13.57;100.00;100935.52;110739;1197;73116;-77
2021/08/29 02:54:26;;;;;;;16.50;4.10;;;;;;;13.57;100.00;100935.00;110648;1197;61281;-79
2021/08/29 02:56:55;;;;;;;8.60;4.30;;;;;;;13.56;100.00;100932.70;110834;1198;61324;-76
2021/08/29 02:59:22;;;;;;;7.20;2.80;;;;;;;13.56;100.00;100931.72;110732;1206;74575;-78
2021/08/29 03:01:49;;;;;;;7.00;4.20;;;;;;;13.55;100.00;100930.59;110665;1205;72137;-77
2021/08/29 03:04:17;;;;;;;11.40;4.40;;;;;;;13.54;100.00;100929.27;111274;1198;72487;-78
2021/08/29 03:06:44;;;;;;;8.80;4.30;;;;;;;13.52;100.00;100925.94;110648;1205;62915;-77
2021/08/29 03:09:11;;;;;;;7.10;4.70;;;;;;;13.52;100.00;100928.34;110702;1205;61298;-78
2021/08/29 03:11:37;;;;;;;6.10;3.70;;;;;;;13.51;100.00;100928.41;110717;1198;74438;-79
2021/08/29 03:14:06;;;;;;;5.50;4.10;;;;;;;13.50;100.00;100922.17;110899;1206;71343;-79
2021/08/29 03:16:33;;;;;;;6.10;4.40;;;;;;;13.49;100.00;100921.58;110842;1198;72735;-79
2021/08/29 03:19:01;;;;;;;10.30;5.10;;;;;;;13.49;100.00;100921.25;110669;1207;61571;-79
2021/08/29 03:21:27;;;;;;;7.10;4.70;;;;;;;13.48;100.00;100917.60;110948;1204;61119;-78
2021/08/29 03:23:54;;;;;;;9.50;4.10;;;;;;;13.49;100.00;100914.86;110867;1206;75543;-78
2021/08/29 03:26:21;;;;;;;6.70;5.10;;;;;;;13.50;100.00;100914.88;111115;1200;72055;-77
2021/08/29 03:28:48;;;;;;;6.90;4.10;;;;;;;13.50;100.00;100917.20;110951;1204;73718;-80
2021/08/29 03:31:14;;;;;;;8.80;4.30;;;;;;;13.48;100.00;100916.49;110957;1206;61171;-78
2021/08/29 03:33:46;;;;;;;4.30;3.20;;;;;;;13.47;100.00;100915.17;110953;1205;61091;-79
2021/08/29 03:36:19;;;;;;;6.70;4.10;;;;;;;13.45;100.00;100907.73;111050;1199;75989;-78
2021/08/29 03:38:47;;;;;;;6.70;3.50;;;;;;;13.45;100.00;100909.05;111105;1198;70976;-80
2021/08/29 03:41:17;;;;;;;8.40;3.90;;;;;;;13.45;100.00;100906.87;110774;1198;73885;-80
2021/08/29 03:43:44;;;;;;;6.00;3.20;;;;;;;13.47;100.00;100903.49;110793;1205;61838;-79
2021/08/29 03:46:13;;;;;;;6.00;3.60;;;;;;;13.48;100.00;100900.92;110729;1198;61229;-77
2021/08/29 03:48:39;;;;;;;6.70;3.50;;;;;;;13.49;100.00;100901.13;111169;1197;75342;-78
2021/08/29 03:51:07;;;;;;;7.70;3.40;;;;;;;13.50;100.00;100899.38;110717;1200;70849;-78
2021/08/29 03:53:34;;;;;;;4.80;3.50;;;;;;;13.52;100.00;100902.96;111084;1205;72447;-79
2021/08/29 03:56:01;;;;;;;4.70;3.00;;;;;;;13.53;100.00;100898.02;110708;1207;61036;-78
2021/08/29 03:58:28;;;;;;;6.60;3.20;;;;;;;13.51;100.00;100897.83;110638;1206;61085;-78
2021/08/29 04:00:55;;;;;;;4.10;2.50;;;;;;;13.52;100.00;100895.30;110713;1205;74548;-77
2021/08/29 04:03:24;;;;;;;3.20;2.10;;;;;;;13.52;100.00;100893.13;110649;1205;70960;-77
2021/08/29 04:05:51;;;;;;;3.40;1.80;;;;;;;13.51;100.00;100892.66;111044;1206;72855;-77
2021/08/29 04:08:25;;;;;;;3.90;2.10;;;;;;;13.49;100.00;100891.16;110746;1205;62220;-78
2021/08/29 04:10:54;;;;;;;4.30;1.80;;;;;;;13.48;100.00;100891.45;110952;1203;61612;-78
2021/08/29 04:13:25;;;;;;;3.30;1.60;;;;;;;13.47;100.00;100892.27;110784;1205;74477;-78
2021/08/29 04:15:52;;;;;;;3.00;1.60;;;;;;;13.46;100.00;100890.07;110770;1207;71011;-79
2021/08/29 04:18:23;;;;;;;3.10;1.80;;;;;;;13.45;100.00;100888.05;110864;1205;73590;-81
2021/08/29 04:20:50;;;;;;;2.70;1.80;;;;;;;13.46;100.00;100894.33;110801;1205;63376;-79
2021/08/29 04:23:17;;;;;;;3.20;1.60;;;;;;;13.45;100.00;100889.09;111094;1198;61291;-80
2021/08/29 04:25:44;;;;;;;3.10;1.60;;;;;;;13.44;100.00;100892.73;110965;1198;76640;-79
2021/08/29 04:28:11;;;;;;;3.40;1.70;;;;;;;13.44;100.00;100890.30;110697;1205;70955;-79
2021/08/29 04:30:37;;;;;;;2.60;1.50;;;;;;;13.42;100.00;100888.64;110652;1205;73538;-78
2021/08/29 04:33:04;;;;;;;2.30;1.30;;;;;;;13.42;100.00;100888.96;110712;1207;61932;-78
2021/08/29 04:35:31;;;;;;;4.30;1.90;;;;;;;13.42;100.00;100882.98;110873;1205;61088;-79
2021/08/29 04:37:58;;;;;;;3.10;1.80;;;;;;;13.43;100.00;100884.75;110834;1207;74706;-79
2021/08/29 04:40:24;;;;;;;2.70;1.40;;;;;;;13.42;100.00;100883.63;111047;1205;71918;-80
2021/08/29 04:42:51;;;;;;;3.30;2.00;;;;;;;13.42;100.00;100885.23;111926;1207;61085;-80
2021/08/29 04:45:17;;;;;;;2.70;1.60;;;;;;;13.42;100.00;100886.42;112559;1203;61824;-80
2021/08/29 04:47:44;;;;;;;2.20;1.40;;;;;;;13.44;100.00;100889.10;113568;1198;58938;-80
2021/08/29 04:50:10;;;;;;;3.40;1.80;;;;;;;13.45;100.00;100890.02;114020;1205;60982;-80
2021/08/29 04:52:37;;;;;;;3.10;1.70;;;;;;;13.46;100.00;100891.50;113371;1197;61088;-80
2021/08/29 04:55:04;;;;;;;2.20;1.20;;;;;;;13.47;100.00;100888.03;111013;1206;61004;-82
2021/08/29 04:57:30;;;;;;;2.20;1.60;;;;;;;13.48;100.00;100891.36;111076;1205;63159;-80
2021/08/29 04:59:57;;;;;;;3.10;1.70;;;;;;;13.49;100.00;100890.17;110951;1205;61084;-84
2021/08/29 05:02:23;;;;;;;2.90;1.40;;;;;;;13.49;100.00;100893.30;110972;1207;61096;-80
2021/08/29 05:04:50;;;;;;;2.90;1.40;;;;;;;13.51;100.00;100890.08;111226;1205;70645;-79
2021/08/29 05:07:17;;;;;;;9.00;1.90;;;;;;;13.52;100.00;100889.60;111119;1205;61070;-78
2021/08/29 05:09:43;;;;;;;2.70;1.40;;;;;;;13.54;100.00;100891.27;110816;1205;61071;-80
2021/08/29 05:12:10;;;;;;;3.40;1.50;;;;;;;13.56;100.00;100890.30;110948;1204;61090;-79
2021/08/29 05:14:36;;;;;;;2.10;1.10;;;;;;;13.57;100.00;100892.80;110819;1205;60996;-78
2021/08/29 05:17:03;;;;;;;1.60;0.90;;;;;;;13.58;100.00;100895.35;110733;1206;61069;-79
2021/08/29 05:19:29;;;;;;;2.30;1.40;;;;;;;13.57;100.00;100893.29;110752;1205;61115;-80
2021/08/29 05:21:56;;;;;;;2.40;1.30;;;;;;;13.57;100.00;100893.20;110922;1203;61034;-79
2021/08/29 05:24:22;;;;;;;2.30;1.20;;;;;;;13.56;100.00;100890.83;110847;1205;61069;-80
2021/08/29 05:26:49;;;;;;;2.20;1.30;;;;;;;13.57;100.00;100892.15;110949;1199;61056;-79
2021/08/29 05:29:15;;;;;;;1.80;1.10;;;;;;;13.57;100.00;100892.31;110932;1205;61083;-80
2021/08/29 05:31:42;;;;;;;1.80;1.00;;;;;;;13.58;100.00;100894.82;110972;1209;61115;-80
2021/08/29 05:34:08;;;;;;;2.30;1.00;;;;;;;13.58;100.00;100894.78;111037;1205;61019;-79
2021/08/29 05:36:35;;;;;;;1.90;0.70;;;;;;;13.60;100.00;100895.63;110970;1205;60987;-78
2021/08/29 05:39:01;;;;;;;1.80;0.90;;;;;;;13.62;100.00;100897.66;110874;1205;61129;-79
2021/08/29 05:41:28;;;;;;;1.60;0.90;;;;;;;13.64;100.00;100896.04;110784;1198;61019;-80
2021/08/29 05:43:55;;;;;;;1.80;1.10;;;;;;;13.66;100.00;100896.49;110826;1207;61093;-79
2021/08/29 05:46:21;;;;;;;2.20;1.20;;;;;;;13.68;100.00;100897.88;110826;1206;61069;-78
2021/08/29 05:48:50;;;;;;;1.90;1.10;;;;;;;13.69;100.00;100903.05;110753;1205;61106;-81
2021/08/29 05:51:17;;;;;;;1.70;1.00;;;;;;;13.70;100.00;100901.13;110815;1206;73576;-81
2021/08/29 05:53:43;;;;;;;2.10;1.30;;;;;;;13.72;100.00;100901.27;111086;1205;71858;-80
2021/08/29 05:56:10;;;;;;;2.60;1.10;;;;;;;13.74;100.00;100899.45;111017;1205;61115;-80
2021/08/29 05:58:37;;;;;;;1.60;1.00;;;;;;;13.76;100.00;100900.74;110928;1206;62928;-79
2021/08/29 06:01:03;;;;;;;3.40;2.00;;;;;;;13.79;100.00;100897.61;111204;1207;61043;-79
2021/08/29 06:03:37;;;;;;;3.60;1.30;;;;;;;13.80;100.00;100900.05;110905;1207;74575;-79
2021/08/29 06:06:04;;;;;;;3.00;1.10;;;;;;;13.83;100.00;100898.27;111791;1198;72082;-79
2021/08/29 06:08:31;;;;;;;5.00;1.50;;;;;;;13.86;100.00;100899.35;110907;1205;71756;-79
2021/08/29 06:10:58;;;;;;;2.00;1.40;;;;;;;13.85;100.00;100901.20;110941;1205;61085;-80
2021/08/29 06:13:25;;;;;;;2.50;1.40;;;;;;;13.87;100.00;100903.72;110863;1205;61486;-79
2021/08/29 06:15:52;;;;;;;2.80;1.60;;;;;;;13.87;100.00;100902.20;110963;1205;76350;-79
2021/08/29 06:18:18;;;;;;;3.70;1.60;;;;;;;13.90;100.00;100897.66;110938;1198;70734;-78
2021/08/29 06:20:45;;;;;;;3.80;1.80;;;;;;;13.94;100.00;100898.23;110850;1203;61232;-78
2021/08/29 06:23:11;;;;;;;2.80;1.60;;;;;;;13.99;100.00;100898.98;110656;1205;61149;-79
2021/08/29 06:25:38;;;;;;;3.20;1.60;;;;;;;14.04;100.00;100893.85;110773;1205;62290;-77
2021/08/29 06:28:04;;;;;;;3.00;1.30;;;;;;;14.10;100.00;100894.75;110639;1205;61050;-78
2021/08/29 06:30:31;;;;;;;2.70;1.60;;;;;;;14.14;100.00;100893.71;110733;1205;61129;-79
2021/08/29 06:32:57;;;;;;;4.00;1.30;;;;;;;14.18;100.00;100889.73;110743;1201;61084;-82
2021/08/29 06:35:24;;;;;;;3.70;1.30;;;;;;;14.16;100.00;100891.89;110866;1205;61117;-79
2021/08/29 06:37:50;;;;;;;4.00;1.50;;;;;;;14.14;100.00;100889.16;110842;1206;61075;-79
2021/08/29 06:40:17;;;;;;;6.40;1.50;;;;;;;14.12;100.00;100894.20;110818;1205;61108;-80
2021/08/29 06:42:43;;;;;;;3.30;1.80;;;;;;;14.12;100.00;100892.96;110882;1205;61108;-80
2021/08/29 06:45:11;;;;;;;2.70;1.70;;;;;;;14.11;100.00;100897.27;110747;1205;61066;-77
2021/08/29 06:47:37;;;;;;;2.00;1.30;;;;;;;14.10;100.00;100892.83;110810;1205;62637;-79
2021/08/29 06:50:05;;;;;;;3.50;1.50;;;;;;;14.08;100.00;100894.46;110808;1205;61069;-79
2021/08/29 06:52:32;;;;;;;2.30;1.50;;;;;;;14.05;100.00;100895.33;111013;1205;75586;-83
2021/08/29 06:54:58;;;;;;;7.50;3.00;;;;;;;14.03;100.00;100892.68;110886;1204;72201;-79
2021/08/29 06:57:27;;;;;;;2.70;1.60;;;;;;;14.01;100.00;100893.20;110648;1205;61064;-78
2021/08/29 06:59:53;;;;;;;3.20;1.80;;;;;;;14.00;100.00;100894.83;110680;1203;61966;-79
2021/08/29 07:02:21;;;;;;;3.00;1.60;;;;;;;13.98;100.00;100893.66;110838;1205;61070;-79
2021/08/29 07:04:49;;;;;;;4.70;1.30;;;;;;;13.99;100.00;100892.82;111179;1197;74554;-77
2021/08/29 07:07:16;;;;;;;2.20;1.40;;;;;;;13.96;100.00;100893.54;110919;1205;71977;-80
2021/08/29 07:09:43;;;;;;;3.20;1.80;;;;;;;13.92;100.00;100889.98;111141;1198;75058;-79
2021/08/29 07:12:10;;;;;;;3.90;2.30;;;;;;;13.92;100.00;100889.38;110744;1205;61926;-71
2021/08/29 07:14:37;;;;;;;3.10;2.00;;;;;;;13.93;100.00;100887.80;111374;1198;61074;-74
2021/08/29 07:17:04;;;;;;;3.00;1.70;;;;;;;13.98;100.00;100886.91;110632;1205;61082;-75
2021/08/29 07:19:31;;;;;;;4.60;1.60;;;;;;;14.04;100.00;100884.16;110784;1205;72112;-74
2021/08/29 07:21:57;;;;;;;3.30;1.60;;;;;;;14.11;100.00;100885.38;110711;1203;73716;-72
2021/08/29 07:24:24;;;;;;;2.70;1.40;;;;;;;14.20;100.00;100886.05;110609;1205;61794;-75
2021/08/29 07:26:50;;;;;;;4.60;1.90;;;;;;;14.28;100.00;100886.07;110614;1206;61090;-75
2021/08/29 07:29:17;;;;;;;3.50;2.10;;;;;;;14.36;100.00;100886.04;110614;1205;61134;-75
2021/08/29 07:31:43;;;;;;;2.10;1.20;;;;;;;14.41;100.00;100892.77;110768;1205;61556;-75
2021/08/29 07:34:10;;;;;;;2.60;1.40;;;;;;;14.45;100.00;100890.66;110752;1204;61101;-76
2021/08/29 07:36:36;;;;;;;4.00;1.60;;;;;;;14.50;100.00;100891.17;110720;1197;61115;-74
2021/08/29 07:39:03;;;;;;;3.20;1.50;;;;;;;14.52;100.00;100894.07;110888;1205;61047;-74
2021/08/29 07:41:29;;;;;;;2.50;1.30;;;;;;;14.53;100.00;100894.52;110741;1205;61699;-74
2021/08/29 07:43:55;;;;;;;2.50;1.60;;;;;;;14.52;100.00;100895.47;110729;1205;61200;-75
2021/08/29 07:46:25;;;;;;;2.20;1.10;;;;;;;14.50;100.00;100891.30;110604;1208;61043;-74
2021/08/29 07:48:51;;;;;;;2.30;1.00;;;;;;;14.48;100.00;100892.92;110857;1205;61960;-76
2021/08/29 07:51:18;;;;;;;3.10;1.20;;;;;;;14.45;100.00;100894.23;110723;1205;61063;-74
2021/08/29 07:53:44;;;;;;;2.20;1.20;;;;;;;14.45;100.00;100898.50;110747;1205;61029;-75
2021/08/29 07:56:11;;;;;;;3.50;1.50;;;;;;;14.44;100.00;100897.17;110604;1206;61487;-73
2021/08/29 07:58:37;;;;;;;3.80;1.40;;;;;;;14.41;100.00;100894.91;110667;1205;61070;-75
2021/08/29 08:01:04;;;;;;;2.40;1.40;;;;;;;14.40;100.00;100896.54;110683;1205;61816;-77
2021/08/29 08:03:31;;;;;;;2.60;1.40;;;;;;;14.38;100.00;100895.48;110741;1205;61105;-75
2021/08/29 08:05:58;;;;;;;3.00;2.00;;;;;;;14.37;100.00;100893.65;110806;1206;74558;-73
2021/08/29 08:08:24;;;;;;;2.30;1.30;;;;;;;14.39;100.00;100895.19;110657;1205;61104;-73
2021/08/29 08:10:50;;;;;;;3.10;1.70;;;;;;;14.41;100.00;100899.01;110646;1205;61119;-73
2021/08/29 08:13:19;;;;;;;3.20;1.70;;;;;;;14.42;100.00;100900.73;110676;1205;62001;-75
2021/08/29 08:15:46;;;;;;;3.40;1.50;;;;;;;14.42;100.00;100898.88;110663;1205;61054;-74
2021/08/29 08:18:12;;;;;;;2.60;1.30;;;;;;;14.44;100.00;100899.56;110804;1205;61175;-75
2021/08/29 08:20:39;;;;;;;3.80;2.20;;;;;;;14.44;100.00;100902.77;110694;1205;61159;-74
2021/08/29 08:23:05;;;;;;;4.50;1.60;;;;;;;14.44;100.00;100902.55;110684;1205;61003;-72
2021/08/29 08:25:32;;;;;;;5.30;1.90;;;;;;;14.48;100.00;100900.45;110831;1198;61214;-74
2021/08/29 08:27:58;;;;;;;3.10;1.60;;;;;;;14.55;100.00;100906.38;110854;1205;60981;-75
2021/08/29 08:30:25;;;;;;;3.50;1.70;;;;;;;14.60;100.00;100906.96;110857;1205;62253;-75
2021/08/29 08:32:51;;;;;;;2.50;1.60;;;;;;;14.64;100.00;100904.48;110803;1206;61040;-74
2021/08/29 08:35:18;;;;;;;2.20;1.20;;;;;;;14.66;100.00;100904.21;110778;1205;72494;-74
2021/08/29 08:37:45;;;;;;;1.90;1.20;;;;;;;14.66;100.00;100902.97;110830;1205;61604;-74
2021/08/29 08:40:11;;;;;;;2.70;1.50;;;;;;;14.68;100.00;100906.64;110757;1198;61068;-75
2021/08/29 08:42:39;;;;;;;5.00;2.30;;;;;;;14.71;100.00;100904.94;110771;1205;74529;-73
2021/08/29 08:45:08;;;;;;;3.90;1.50;;;;;;;14.74;100.00;100905.42;111074;1198;72217;-73
2021/08/29 08:47:37;;;;;;;2.20;1.30;;;;;;;14.78;100.00;100908.45;110568;1205;72693;-75
2021/08/29 08:50:04;;;;;;;3.60;1.30;;;;;;;14.83;100.00;100909.42;110653;1205;62968;-73
2021/08/29 08:52:31;;;;;;;2.20;1.20;;;;;;;14.88;100.00;100915.45;110799;1205;61063;-76
2021/08/29 08:55:01;;;;;;;7.60;4.20;;;;;;;14.92;100.00;100912.67;110751;1205;75093;-74
2021/08/29 08:57:28;;;;;;;1.70;1.20;;;;;;;14.99;100.00;100917.23;110832;1205;71152;-74
2021/08/29 08:59:55;;;;;;;1.50;1.00;;;;;;;15.10;100.00;100918.91;110745;1204;72469;-74
2021/08/29 09:02:23;;;;;;;2.00;1.20;;;;;;;15.18;100.00;100915.58;110609;1205;62759;-76
2021/08/29 09:04:51;;;;;;;1.70;1.10;;;;;;;15.28;99.87;100911.07;111058;1205;61107;-78
2021/08/29 09:07:19;;;;;;;2.80;0.80;;;;;;;15.40;99.79;100911.97;110679;1205;74778;-77
2021/08/29 09:09:46;;;;;;;2.10;1.10;;;;;;;15.54;99.33;100912.25;110702;1205;71196;-76
2021/08/29 09:12:12;;;;;;;2.80;0.90;;;;;;;15.65;98.83;100908.64;110810;1205;72748;-76
2021/08/29 09:14:46;;;;;;;3.40;1.30;;;;;;;15.73;97.81;100909.95;110725;1205;61057;-76
2021/08/29 09:17:34;;;;;;;2.10;1.00;;;;;;;15.79;97.14;100910.55;110824;1205;61097;-75
2021/08/29 09:20:18;;;;;;;2.40;0.80;;;;;;;15.86;96.62;100904.10;110699;1205;75596;-76
2021/08/29 09:22:48;;;;;;;1.50;0.70;;;;;;;15.91;96.36;100903.42;110741;1205;71266;-76
2021/08/29 09:25:18;;;;;;;1.80;1.00;;;;;;;15.90;94.91;100907.80;110971;1205;72702;-76
2021/08/29 09:27:46;;;;;;;5.50;1.40;;;;;;;15.92;95.65;100908.50;111261;1205;61719;-74
2021/08/29 09:30:14;;;;;;;2.70;1.10;;;;;;;15.97;95.89;100903.23;111367;1199;61066;-76
2021/08/29 09:32:54;;;;;;;2.50;1.30;;;;;;;16.04;95.63;100905.70;111012;1205;75574;-74
2021/08/29 09:35:25;;;;;;;1.90;0.80;;;;;;;16.11;95.32;100912.42;113428;1197;70992;-75
2021/08/29 09:37:53;;;;;;;1.70;0.80;;;;;;;16.14;94.92;100913.65;111058;1205;73520;-76
2021/08/29 09:40:21;;;;;;;1.90;0.90;;;;;;;16.19;95.37;100915.34;110886;1205;63365;-77
2021/08/29 09:42:52;;;;;;;1.90;1.00;;;;;;;16.23;94.16;100914.52;111179;1204;61272;-74
2021/08/29 09:45:28;;;;;;;2.20;1.30;;;;;;;16.23;93.89;100913.55;111020;1205;74616;-74
2021/08/29 09:48:25;;;;;;;1.60;1.10;;;;;;;16.26;93.64;100915.36;111179;1202;70759;-75
2021/08/29 09:50:56;;;;;;;2.30;1.30;;;;;;;16.31;93.90;100916.77;111021;1205;73810;-76
2021/08/29 09:53:24;;;;;;;3.30;1.50;;;;;;;16.35;93.46;100919.15;110898;1205;61318;-75
2021/08/29 09:55:51;;;;;;;2.00;1.10;;;;;;;16.36;92.90;100923.94;110752;1205;61181;-75
2021/08/29 09:58:27;;;;;;;2.80;1.20;;;;;;;16.31;92.93;100923.90;110809;1205;75704;-78
2021/08/29 10:01:12;;;;;;;1.40;0.80;;;;;;;16.31;93.39;100928.01;110884;1205;71464;-75
2021/08/29 10:03:43;;;;;;;2.30;1.50;;;;;;;16.29;93.16;100929.33;110891;1205;72586;-75
2021/08/29 10:06:27;;;;;;;1.90;1.10;;;;;;;16.29;93.61;100927.23;111014;1198;61970;-75
2021/08/29 10:08:58;;;;;;;2.10;1.40;;;;;;;16.28;93.17;100923.08;110834;1205;62041;-74
2021/08/29 10:11:28;;;;;;;2.00;1.10;;;;;;;16.29;93.58;100924.77;110741;1205;77084;-77
2021/08/29 10:13:56;;;;;;;2.00;1.30;;;;;;;16.26;92.63;100922.26;111086;1198;71102;-76
2021/08/29 10:16:26;;;;;;;2.40;1.50;;;;;;;16.25;92.89;100920.73;110603;1205;72682;-76
2021/08/29 10:18:55;;;;;;;1.60;1.10;;;;;;;16.25;93.41;100917.55;110950;1205;63270;-76
2021/08/29 10:21:24;;;;;;;5.80;1.20;;;;;;;16.30;93.31;100909.77;110641;1205;61176;-74
2021/08/29 10:23:53;;;;;;;2.70;1.20;;;;;;;16.43;93.47;100907.37;111172;1198;74600;-76
2021/08/29 10:26:22;;;;;;;2.40;1.30;;;;;;;16.54;92.29;100908.71;111183;1205;70928;-75
2021/08/29 10:28:58;;;;;;;1.80;1.10;;;;;;;16.62;91.79;100907.58;111887;1203;72420;-74
2021/08/29 10:31:38;;;;;;;2.50;1.80;;;;;;;16.74;91.82;100906.23;110640;1205;61987;-75
2021/08/29 10:34:05;;;;;;;1.80;0.90;;;;;;;16.82;91.00;100904.21;110627;1205;60970;-75
2021/08/29 10:36:32;;;;;;;1.80;1.00;;;;;;;16.84;90.37;100906.47;110774;1205;75743;-75
2021/08/29 10:38:58;;;;;;;3.40;1.00;;;;;;;16.85;89.54;100904.16;110772;1205;72112;-76
2021/08/29 10:41:25;;;;;;;2.10;1.00;;;;;;;16.93;89.68;100902.66;110664;1206;61089;-75
2021/08/29 10:43:52;;;;;;;1.70;1.30;;;;;;;17.14;90.34;100902.48;110802;1205;60990;-74
2021/08/29 10:46:20;;;;;;;1.40;0.90;;;;;;;17.44;89.72;100905.30;110837;1205;61098;-74
2021/08/29 10:48:50;;;;;;;1.70;1.10;;;;;;;17.88;88.31;100902.92;110837;1205;74593;-76
2021/08/29 10:51:19;;;;;;;1.60;1.00;;;;;;;18.30;85.98;100904.77;110896;1206;72589;-74
2021/08/29 10:53:51;;;;;;;4.10;1.20;;;;;;;18.54;84.90;100898.79;110938;1204;72543;-75
2021/08/29 10:56:18;;;;;;;3.40;1.20;;;;;;;18.61;82.97;100896.85;111055;1197;61312;-76
2021/08/29 10:58:47;;;;;;;1.70;1.30;;;;;;;18.59;83.47;100897.16;110690;1205;61026;-76
2021/08/29 11:01:39;;;;;;;2.30;1.30;;;;;;;18.61;83.75;100895.79;110914;1197;74512;-76
2021/08/29 11:04:21;;;;;;;1.10;0.70;;;;;;;18.59;82.35;100898.61;110714;1205;71387;-75
2021/08/29 11:06:49;;;;;;;2.40;0.90;;;;;;;18.58;83.27;100892.51;110816;1203;73527;-74
2021/08/29 11:09:37;;;;;;;2.20;1.00;;;;;;;18.64;83.41;100896.41;110799;1205;62913;-74
2021/08/29 11:12:12;;;;;;;1.70;1.20;;;;;;;18.76;82.64;100901.30;111032;1205;61248;-74
2021/08/29 11:14:41;;;;;;;1.70;1.20;;;;;;;18.76;82.37;100902.81;110734;1205;75733;-77
2021/08/29 11:17:15;;;;;;;1.40;0.90;;;;;;;18.62;81.67;100898.66;110779;1205;72112;-74